Time,TemperatureF,DewpointF,PressureIn,WindDirection,WindDirectionDegrees,WindSpeedMPH,WindSpeedGustMPH,Humidity,HourlyPrecipIn,Conditions,Clouds,dailyrainin,SoftwareType,DateUTC
2013-02-13 00:29:00,42.5,42.0,30.02,NE,45,8.0,21.0,98,0.00,CLR,FEW,0.00,WeatherDisplay:10.37,2013-02-13 00:29:00,
2013-02-13 00:59:00,42.8,42.3,30.00,NE,45,8.0,20.0,98,0.00,CLR,FEW,0.00,WeatherDisplay:10.37,2013-02-13 00:59:00,
2013-02-13 01:29:00,42.6,42.1,30.01,NE,45,8.0,18.0,98,0.00,CLR,FEW,0.00,WeatherDisplay:10.37,2013-02-13 01:29:00,
2013-02-13 01:59:00,42.8,42.3,30.00,NE,45,10.0,20.0,98,0.00,CLR,FEW,0.00,WeatherDisplay:10.37,2013-02-13 01:59:00,
2013-02-13 02:29:00,42.8,42.3,29.99,NE,45,9.0,18.0,98,0.00,CLR,FEW,0.00,WeatherDisplay:10.37,2013-02-13 02:29:00,
2013-02-13 02:59:00,42.8,42.5,29.99,NE,45,9.0,22.0,99,0.00,CLR,FEW,0.00,WeatherDisplay:10.37,2013-02-13 02:59:00,
2013-02-13 03:29:00,43.0,42.7,29.97,NE,45,9.0,23.0,99,0.00,CLR,FEW,0.00,WeatherDisplay:10.37,2013-02-13 03:29:00,
2013-02-13 03:59:00,43.0,42.7,29.96,NE,45,12.0,23.0,99,0.00,CLR,FEW,0.00,WeatherDisplay:10.37,2013-02-13 03:59:00,
2013-02-13 04:29:00,42.8,42.5,29.95,NE,45,10.0,22.0,99,0.00,CLR,FEW,0.00,WeatherDisplay:10.37,2013-02-13 04:29:00,
2013-02-13 04:59:00,42.6,42.4,29.94,NE,45,12.0,23.0,99,0.01,RA,FEW,0.01,WeatherDisplay:10.37,2013-02-13 04:59:00,
2013-02-13 05:29:00,42.4,42.2,29.93,NE,45,13.0,29.0,99,0.00,CLR,FEW,0.01,WeatherDisplay:10.37,2013-02-13 05:29:00,
2013-02-13 05:59:00,42.4,42.2,29.92,NE,45,12.0,26.0,99,0.01,,FEW,0.02,WeatherDisplay:10.37,2013-02-13 05:59:00,
2013-02-13 06:29:00,42.8,42.5,29.92,NE,45,9.0,26.0,99,0.00,,FEW,0.02,WeatherDisplay:10.37,2013-02-13 06:29:00,
2013-02-13 06:59:00,43.3,43.1,29.91,NE,45,10.0,23.0,99,0.00,,FEW,0.02,WeatherDisplay:10.37,2013-02-13 06:59:00,
2013-02-13 07:29:00,43.7,43.4,29.90,NE,45,10.0,23.0,99,0.02,,FEW,0.05,WeatherDisplay:10.37,2013-02-13 07:29:00,
2013-02-13 07:59:00,43.9,43.6,29.90,NE,45,9.0,22.0,99,0.01,,FEW,0.06,WeatherDisplay:10.37,2013-02-13 07:59:00,
2013-02-13 08:29:00,44.1,43.8,29.89,NE,45,10.0,24.0,99,0.01,,FEW,0.07,WeatherDisplay:10.37,2013-02-13 08:29:00,
2013-02-13 08:59:00,44.2,44.0,29.89,NE,45,12.0,20.0,99,0.02,CLR,FEW,0.09,WeatherDisplay:10.37,2013-02-13 08:59:00,
2013-02-13 09:29:00,44.4,44.2,29.88,NE,45,10.0,20.0,99,0.02,CLR,FEW,0.12,WeatherDisplay:10.37,2013-02-13 09:29:00,
2013-02-13 10:00:00,44.7,44.4,29.87,NE,45,8.0,21.0,99,0.01,,FEW,0.13,WeatherDisplay:10.37,2013-02-13 10:00:00,
2013-02-13 10:30:00,45.0,44.7,29.87,NE,45,8.0,21.0,99,0.00,,FEW,0.13,WeatherDisplay:10.37,2013-02-13 10:30:00,
2013-02-13 11:00:00,45.3,45.1,29.86,NE,45,6.0,20.0,99,0.01,RA,FEW,0.14,WeatherDisplay:10.37,2013-02-13 11:00:00,
2013-02-13 11:30:00,45.5,45.2,29.86,NE,45,10.0,21.0,99,0.00,,FEW,0.14,WeatherDisplay:10.37,2013-02-13 11:30:00,
2013-02-13 12:00:00,45.9,45.6,29.85,NE,45,6.0,21.0,99,0.00,,FEW,0.14,WeatherDisplay:10.37,2013-02-13 12:00:00,
2013-02-13 12:30:00,45.7,45.4,29.83,NE,45,0.0,15.0,99,0.00,,FEW,0.14,WeatherDisplay:10.37,2013-02-13 12:30:00,
2013-02-13 13:00:00,46.2,46.0,29.82,NE,45,5.0,17.0,99,0.00,,FEW,0.14,WeatherDisplay:10.37,2013-02-13 13:00:00,
2013-02-13 13:30:00,46.6,46.3,29.81,NE,45,3.0,17.0,99,0.00,,FEW,0.14,WeatherDisplay:10.37,2013-02-13 13:30:00,
2013-02-13 14:00:00,46.9,46.7,29.79,NE,45,1.0,17.0,99,0.00,,FEW,0.14,WeatherDisplay:10.37,2013-02-13 14:00:00,
2013-02-13 14:30:00,47.1,46.9,29.78,NE,45,3.0,16.0,99,0.00,,FEW,0.14,WeatherDisplay:10.37,2013-02-13 14:30:00,
2013-02-13 15:00:00,47.7,47.4,29.77,NE,45,0.0,15.0,99,0.00,,FEW,0.14,WeatherDisplay:10.37,2013-02-13 15:00:00,
2013-02-13 15:30:00,51.1,50.8,29.76,NE,45,0.0,5.0,99,0.00,,FEW,0.14,WeatherDisplay:10.37,2013-02-13 15:30:00,
2013-02-13 16:00:00,51.8,51.5,29.75,NE,45,3.0,11.0,99,0.00,,FEW,0.14,WeatherDisplay:10.37,2013-02-13 16:00:00,
2013-02-13 16:30:00,52.3,52.1,29.74,NE,45,2.0,11.0,99,0.00,,FEW,0.14,WeatherDisplay:10.37,2013-02-13 16:30:00,
2013-02-13 17:00:00,50.5,50.2,29.73,NE,45,10.0,17.0,99,0.00,,FEW,0.14,WeatherDisplay:10.37,2013-02-13 17:00:00,
2013-02-13 17:30:00,49.2,49.0,29.72,NE,45,2.0,17.0,99,0.00,,FEW,0.14,WeatherDisplay:10.37,2013-02-13 17:30:00,
2013-02-13 18:00:00,48.2,47.9,29.72,NE,45,0.0,20.0,99,0.00,,FEW,0.14,WeatherDisplay:10.37,2013-02-13 18:00:00,
2013-02-13 18:30:00,48.6,48.3,29.71,NE,45,0.0,7.0,99,0.00,,FEW,0.14,WeatherDisplay:10.37,2013-02-13 18:30:00,
2013-02-13 19:00:00,50.9,50.6,29.71,NE,45,0.0,6.0,99,0.00,,FEW,0.14,WeatherDisplay:10.37,2013-02-13 19:00:00,
2013-02-13 19:30:00,51.1,50.8,29.71,NE,45,0.0,4.0,99,0.00,,FEW,0.14,WeatherDisplay:10.37,2013-02-13 19:30:00,
2013-02-13 20:00:00,50.5,50.3,29.72,NE,45,0.0,8.0,99,0.01,CLR,FEW,0.15,WeatherDisplay:10.37,2013-02-13 20:00:00,
2013-02-13 20:30:00,50.2,49.9,29.71,NE,45,0.0,2.0,99,0.00,CLR,FEW,0.15,WeatherDisplay:10.37,2013-02-13 20:30:00,
2013-02-13 21:00:00,49.8,49.6,29.71,NE,45,0.0,1.0,99,0.00,CLR,FEW,0.15,WeatherDisplay:10.37,2013-02-13 21:00:00,
2013-02-13 21:30:00,49.6,49.4,29.70,NE,45,0.0,2.0,99,0.00,CLR,FEW,0.15,WeatherDisplay:10.37,2013-02-13 21:30:00,
2013-02-13 22:00:00,49.8,49.6,29.70,NE,45,0.0,4.0,99,0.00,CLR,FEW,0.15,WeatherDisplay:10.37,2013-02-13 22:00:00,
2013-02-13 22:30:00,49.5,49.2,29.70,NE,45,0.0,2.0,99,0.00,CLR,FEW,0.15,WeatherDisplay:10.37,2013-02-13 22:30:00,
2013-02-13 23:00:00,49.6,49.4,29.71,NE,45,0.0,9.0,99,0.00,CLR,FEW,0.15,WeatherDisplay:10.37,2013-02-13 23:00:00,
2013-02-13 23:30:00,49.2,48.9,29.71,NE,45,0.0,7.0,99,0.00,CLR,FEW,0.15,WeatherDisplay:10.37,2013-02-13 23:30:00,